sensor_id;sensor_type;location;lat;lon;timestamp;P1;durP1;ratioP1;P2;durP2;ratioP2
71288;SDS011;59068;52.502;9.860;2022-12-07T00:01:22;36.60;;;22.27;;
71288;SDS011;59068;52.502;9.860;2022-12-07T00:03:50;36.70;;;21.07;;
71288;SDS011;59068;52.502;9.860;2022-12-07T00:06:16;33.43;;;20.23;;
71288;SDS011;59068;52.502;9.860;2022-12-07T00:08:42;30.33;;;18.77;;
71288;SDS011;59068;52.502;9.860;2022-12-07T00:11:09;31.83;;;19.43;;
71288;SDS011;59068;52.502;9.860;2022-12-07T00:13:36;34.53;;;20.27;;
71288;SDS011;59068;52.502;9.860;2022-12-07T00:16:06;36.17;;;22.17;;
71288;SDS011;59068;52.502;9.860;2022-12-07T00:18:34;31.37;;;21.07;;
71288;SDS011;59068;52.502;9.860;2022-12-07T00:21:01;37.57;;;22.83;;
71288;SDS011;59068;52.502;9.860;2022-12-07T00:23:27;43.67;;;24.77;;
71288;SDS011;59068;52.502;9.860;2022-12-07T00:25:52;39.73;;;22.43;;
71288;SDS011;59068;52.502;9.860;2022-12-07T00:28:18;33.43;;;21.90;;
71288;SDS011;59068;52.502;9.860;2022-12-07T00:30:43;35.83;;;22.00;;
71288;SDS011;59068;52.502;9.860;2022-12-07T00:33:09;40.20;;;24.87;;
71288;SDS011;59068;52.502;9.860;2022-12-07T00:35:34;46.10;;;24.10;;
71288;SDS011;59068;52.502;9.860;2022-12-07T00:37:59;37.60;;;22.97;;
71288;SDS011;59068;52.502;9.860;2022-12-07T00:40:25;38.80;;;24.07;;
71288;SDS011;59068;52.502;9.860;2022-12-07T00:42:50;39.17;;;23.30;;
71288;SDS011;59068;52.502;9.860;2022-12-07T00:45:15;38.67;;;23.17;;
71288;SDS011;59068;52.502;9.860;2022-12-07T00:47:41;39.40;;;23.80;;
71288;SDS011;59068;52.502;9.860;2022-12-07T00:50:06;38.13;;;22.73;;
71288;SDS011;59068;52.502;9.860;2022-12-07T00:52:32;35.73;;;22.43;;
71288;SDS011;59068;52.502;9.860;2022-12-07T00:54:58;40.97;;;24.40;;
71288;SDS011;59068;52.502;9.860;2022-12-07T00:57:23;38.47;;;22.83;;
71288;SDS011;59068;52.502;9.860;2022-12-07T00:59:49;35.00;;;23.23;;
71288;SDS011;59068;52.502;9.860;2022-12-07T01:02:14;44.60;;;25.60;;
71288;SDS011;59068;52.502;9.860;2022-12-07T01:04:40;40.97;;;24.73;;
71288;SDS011;59068;52.502;9.860;2022-12-07T01:07:06;43.03;;;25.90;;
71288;SDS011;59068;52.502;9.860;2022-12-07T01:09:32;47.97;;;27.57;;
71288;SDS011;59068;52.502;9.860;2022-12-07T01:11:57;43.43;;;26.33;;
71288;SDS011;59068;52.502;9.860;2022-12-07T01:14:23;46.17;;;30.33;;
71288;SDS011;59068;52.502;9.860;2022-12-07T01:16:48;50.03;;;28.70;;
71288;SDS011;59068;52.502;9.860;2022-12-07T01:19:13;47.37;;;28.93;;
71288;SDS011;59068;52.502;9.860;2022-12-07T01:21:39;46.90;;;27.03;;
71288;SDS011;59068;52.502;9.860;2022-12-07T01:24:05;47.33;;;27.50;;
71288;SDS011;59068;52.502;9.860;2022-12-07T01:26:32;44.40;;;25.23;;
71288;SDS011;59068;52.502;9.860;2022-12-07T01:28:58;51.40;;;29.30;;
71288;SDS011;59068;52.502;9.860;2022-12-07T01:31:26;49.83;;;29.70;;
71288;SDS011;59068;52.502;9.860;2022-12-07T01:33:54;41.00;;;25.43;;
71288;SDS011;59068;52.502;9.860;2022-12-07T01:36:22;49.67;;;28.63;;
71288;SDS011;59068;52.502;9.860;2022-12-07T01:38:55;46.63;;;27.00;;
71288;SDS011;59068;52.502;9.860;2022-12-07T01:41:23;45.50;;;28.10;;
71288;SDS011;59068;52.502;9.860;2022-12-07T01:46:38;49.03;;;29.60;;
71288;SDS011;59068;52.502;9.860;2022-12-07T01:49:04;42.43;;;26.30;;
71288;SDS011;59068;52.502;9.860;2022-12-07T01:51:31;44.30;;;25.93;;
71288;SDS011;59068;52.502;9.860;2022-12-07T01:53:56;48.57;;;29.70;;
71288;SDS011;59068;52.502;9.860;2022-12-07T01:56:23;43.37;;;27.23;;
71288;SDS011;59068;52.502;9.860;2022-12-07T01:58:50;44.33;;;26.63;;
71288;SDS011;59068;52.502;9.860;2022-12-07T02:01:16;45.93;;;25.83;;
71288;SDS011;59068;52.502;9.860;2022-12-07T02:03:43;41.07;;;25.70;;
71288;SDS011;59068;52.502;9.860;2022-12-07T02:06:10;46.97;;;28.10;;
71288;SDS011;59068;52.502;9.860;2022-12-07T02:08:38;40.10;;;25.30;;
71288;SDS011;59068;52.502;9.860;2022-12-07T02:11:04;43.80;;;26.40;;
71288;SDS011;59068;52.502;9.860;2022-12-07T02:13:31;45.53;;;26.50;;
71288;SDS011;59068;52.502;9.860;2022-12-07T02:21:25;40.73;;;24.70;;
71288;SDS011;59068;52.502;9.860;2022-12-07T02:24:44;35.23;;;22.77;;
71288;SDS011;59068;52.502;9.860;2022-12-07T02:30:05;36.33;;;21.70;;
71288;SDS011;59068;52.502;9.860;2022-12-07T02:35:15;34.60;;;21.37;;
71288;SDS011;59068;52.502;9.860;2022-12-07T02:38:08;36.47;;;21.70;;
71288;SDS011;59068;52.502;9.860;2022-12-07T02:40:53;38.07;;;21.07;;
71288;SDS011;59068;52.502;9.860;2022-12-07T02:43:39;35.00;;;22.47;;
71288;SDS011;59068;52.502;9.860;2022-12-07T02:46:08;36.10;;;21.87;;
71288;SDS011;59068;52.502;9.860;2022-12-07T02:48:37;33.03;;;21.47;;
71288;SDS011;59068;52.502;9.860;2022-12-07T02:51:03;35.23;;;21.83;;
71288;SDS011;59068;52.502;9.860;2022-12-07T02:55:54;33.70;;;21.30;;
71288;SDS011;59068;52.502;9.860;2022-12-07T02:58:30;34.80;;;21.77;;
71288;SDS011;59068;52.502;9.860;2022-12-07T03:03:44;35.27;;;21.87;;
71288;SDS011;59068;52.502;9.860;2022-12-07T03:08:51;33.77;;;19.63;;
71288;SDS011;59068;52.502;9.860;2022-12-07T03:11:30;31.07;;;19.10;;
71288;SDS011;59068;52.502;9.860;2022-12-07T03:14:09;30.20;;;19.97;;
71288;SDS011;59068;52.502;9.860;2022-12-07T03:16:42;28.03;;;17.83;;
71288;SDS011;59068;52.502;9.860;2022-12-07T03:19:11;31.60;;;18.57;;
71288;SDS011;59068;52.502;9.860;2022-12-07T03:21:42;26.93;;;18.50;;
71288;SDS011;59068;52.502;9.860;2022-12-07T03:24:12;29.87;;;19.20;;
71288;SDS011;59068;52.502;9.860;2022-12-07T03:26:41;28.70;;;19.20;;
71288;SDS011;59068;52.502;9.860;2022-12-07T03:29:11;30.33;;;19.70;;
71288;SDS011;59068;52.502;9.860;2022-12-07T03:31:43;28.87;;;20.40;;
71288;SDS011;59068;52.502;9.860;2022-12-07T03:34:17;31.33;;;17.97;;
71288;SDS011;59068;52.502;9.860;2022-12-07T03:39:22;29.80;;;17.93;;
71288;SDS011;59068;52.502;9.860;2022-12-07T03:41:48;21.40;;;14.53;;
71288;SDS011;59068;52.502;9.860;2022-12-07T03:44:14;22.33;;;14.17;;
71288;SDS011;59068;52.502;9.860;2022-12-07T03:46:44;18.77;;;14.43;;
71288;SDS011;59068;52.502;9.860;2022-12-07T03:49:31;25.23;;;17.67;;
71288;SDS011;59068;52.502;9.860;2022-12-07T03:52:08;26.83;;;16.10;;
71288;SDS011;59068;52.502;9.860;2022-12-07T03:54:41;24.10;;;14.90;;
71288;SDS011;59068;52.502;9.860;2022-12-07T03:57:11;27.93;;;17.83;;
71288;SDS011;59068;52.502;9.860;2022-12-07T03:59:37;20.37;;;13.77;;
71288;SDS011;59068;52.502;9.860;2022-12-07T04:02:04;22.67;;;15.57;;
71288;SDS011;59068;52.502;9.860;2022-12-07T04:04:31;18.17;;;13.73;;
71288;SDS011;59068;52.502;9.860;2022-12-07T04:06:58;24.60;;;15.63;;
71288;SDS011;59068;52.502;9.860;2022-12-07T04:09:23;22.77;;;15.13;;
71288;SDS011;59068;52.502;9.860;2022-12-07T04:11:49;19.97;;;13.33;;
71288;SDS011;59068;52.502;9.860;2022-12-07T04:14:14;19.93;;;13.43;;
71288;SDS011;59068;52.502;9.860;2022-12-07T04:16:43;24.70;;;15.87;;
71288;SDS011;59068;52.502;9.860;2022-12-07T04:19:16;24.27;;;12.50;;
71288;SDS011;59068;52.502;9.860;2022-12-07T04:21:43;26.27;;;15.17;;
71288;SDS011;59068;52.502;9.860;2022-12-07T04:24:09;21.60;;;13.83;;
71288;SDS011;59068;52.502;9.860;2022-12-07T04:26:35;19.97;;;14.30;;
71288;SDS011;59068;52.502;9.860;2022-12-07T04:29:02;21.43;;;13.57;;
71288;SDS011;59068;52.502;9.860;2022-12-07T04:31:28;18.73;;;13.70;;
71288;SDS011;59068;52.502;9.860;2022-12-07T04:33:54;21.33;;;13.90;;
71288;SDS011;59068;52.502;9.860;2022-12-07T04:36:21;18.63;;;12.63;;
71288;SDS011;59068;52.502;9.860;2022-12-07T04:38:48;21.80;;;13.33;;
71288;SDS011;59068;52.502;9.860;2022-12-07T04:41:14;22.37;;;14.47;;
71288;SDS011;59068;52.502;9.860;2022-12-07T04:43:40;19.53;;;13.50;;
71288;SDS011;59068;52.502;9.860;2022-12-07T04:46:06;21.00;;;15.57;;
71288;SDS011;59068;52.502;9.860;2022-12-07T04:48:33;20.57;;;13.30;;
71288;SDS011;59068;52.502;9.860;2022-12-07T04:51:00;19.50;;;13.40;;
71288;SDS011;59068;52.502;9.860;2022-12-07T04:53:29;19.97;;;12.97;;
71288;SDS011;59068;52.502;9.860;2022-12-07T04:55:54;20.40;;;13.53;;
71288;SDS011;59068;52.502;9.860;2022-12-07T04:58:21;18.50;;;12.43;;
71288;SDS011;59068;52.502;9.860;2022-12-07T05:00:47;17.40;;;12.57;;
71288;SDS011;59068;52.502;9.860;2022-12-07T05:03:14;18.47;;;12.73;;
71288;SDS011;59068;52.502;9.860;2022-12-07T05:05:41;25.07;;;14.03;;
71288;SDS011;59068;52.502;9.860;2022-12-07T05:08:08;16.57;;;11.40;;
71288;SDS011;59068;52.502;9.860;2022-12-07T05:10:35;20.10;;;13.37;;
71288;SDS011;59068;52.502;9.860;2022-12-07T05:13:02;21.63;;;14.17;;
71288;SDS011;59068;52.502;9.860;2022-12-07T05:15:27;21.77;;;11.73;;
71288;SDS011;59068;52.502;9.860;2022-12-07T05:17:52;19.47;;;12.40;;
71288;SDS011;59068;52.502;9.860;2022-12-07T05:20:18;15.93;;;9.77;;
71288;SDS011;59068;52.502;9.860;2022-12-07T05:22:45;16.00;;;10.80;;
71288;SDS011;59068;52.502;9.860;2022-12-07T05:25:10;14.93;;;10.53;;
71288;SDS011;59068;52.502;9.860;2022-12-07T05:27:37;13.13;;;9.50;;
71288;SDS011;59068;52.502;9.860;2022-12-07T05:30:04;14.83;;;10.00;;
71288;SDS011;59068;52.502;9.860;2022-12-07T05:32:30;13.20;;;9.70;;
71288;SDS011;59068;52.502;9.860;2022-12-07T05:34:57;16.77;;;10.10;;
71288;SDS011;59068;52.502;9.860;2022-12-07T05:37:22;14.03;;;10.27;;
71288;SDS011;59068;52.502;9.860;2022-12-07T05:39:48;16.20;;;11.83;;
71288;SDS011;59068;52.502;9.860;2022-12-07T05:42:14;16.73;;;10.73;;
71288;SDS011;59068;52.502;9.860;2022-12-07T05:44:40;16.23;;;11.43;;
71288;SDS011;59068;52.502;9.860;2022-12-07T05:47:08;21.40;;;13.63;;
71288;SDS011;59068;52.502;9.860;2022-12-07T05:49:35;16.60;;;11.73;;
71288;SDS011;59068;52.502;9.860;2022-12-07T05:52:03;16.50;;;10.90;;
71288;SDS011;59068;52.502;9.860;2022-12-07T05:54:30;17.23;;;12.90;;
71288;SDS011;59068;52.502;9.860;2022-12-07T05:56:57;19.27;;;10.90;;
71288;SDS011;59068;52.502;9.860;2022-12-07T05:59:23;19.57;;;11.80;;
71288;SDS011;59068;52.502;9.860;2022-12-07T06:04:35;20.77;;;10.63;;
71288;SDS011;59068;52.502;9.860;2022-12-07T06:07:04;16.93;;;10.40;;
71288;SDS011;59068;52.502;9.860;2022-12-07T06:09:30;17.23;;;10.13;;
71288;SDS011;59068;52.502;9.860;2022-12-07T06:11:57;13.23;;;9.50;;
71288;SDS011;59068;52.502;9.860;2022-12-07T06:14:43;14.03;;;10.07;;
71288;SDS011;59068;52.502;9.860;2022-12-07T06:17:10;15.03;;;9.33;;
71288;SDS011;59068;52.502;9.860;2022-12-07T06:19:37;15.73;;;10.07;;
71288;SDS011;59068;52.502;9.860;2022-12-07T06:22:03;14.47;;;10.30;;
71288;SDS011;59068;52.502;9.860;2022-12-07T06:24:31;14.03;;;9.43;;
71288;SDS011;59068;52.502;9.860;2022-12-07T06:26:58;12.53;;;8.43;;
71288;SDS011;59068;52.502;9.860;2022-12-07T06:29:25;16.10;;;8.70;;
71288;SDS011;59068;52.502;9.860;2022-12-07T06:31:51;14.37;;;10.63;;
71288;SDS011;59068;52.502;9.860;2022-12-07T06:34:19;17.23;;;9.33;;
71288;SDS011;59068;52.502;9.860;2022-12-07T06:36:49;14.87;;;9.30;;
71288;SDS011;59068;52.502;9.860;2022-12-07T06:39:17;16.73;;;8.93;;
71288;SDS011;59068;52.502;9.860;2022-12-07T06:41:45;13.17;;;8.97;;
71288;SDS011;59068;52.502;9.860;2022-12-07T06:44:11;13.87;;;8.00;;
71288;SDS011;59068;52.502;9.860;2022-12-07T06:46:38;12.20;;;7.67;;
71288;SDS011;59068;52.502;9.860;2022-12-07T06:49:05;14.13;;;7.90;;
71288;SDS011;59068;52.502;9.860;2022-12-07T06:51:32;9.20;;;7.27;;
71288;SDS011;59068;52.502;9.860;2022-12-07T06:54:00;14.67;;;8.30;;
71288;SDS011;59068;52.502;9.860;2022-12-07T06:56:27;11.90;;;6.60;;
71288;SDS011;59068;52.502;9.860;2022-12-07T06:58:54;13.23;;;8.27;;
71288;SDS011;59068;52.502;9.860;2022-12-07T07:01:21;12.97;;;8.30;;
71288;SDS011;59068;52.502;9.860;2022-12-07T07:03:47;12.67;;;8.33;;
71288;SDS011;59068;52.502;9.860;2022-12-07T07:06:14;13.37;;;8.30;;
71288;SDS011;59068;52.502;9.860;2022-12-07T07:08:40;11.70;;;7.63;;
71288;SDS011;59068;52.502;9.860;2022-12-07T07:11:07;18.90;;;7.80;;
71288;SDS011;59068;52.502;9.860;2022-12-07T07:13:34;10.93;;;7.50;;
71288;SDS011;59068;52.502;9.860;2022-12-07T07:15:59;13.50;;;7.13;;
71288;SDS011;59068;52.502;9.860;2022-12-07T07:18:27;16.00;;;8.03;;
71288;SDS011;59068;52.502;9.860;2022-12-07T07:20:54;14.20;;;7.73;;
71288;SDS011;59068;52.502;9.860;2022-12-07T07:23:21;12.03;;;7.27;;
71288;SDS011;59068;52.502;9.860;2022-12-07T07:25:47;14.17;;;7.40;;
71288;SDS011;59068;52.502;9.860;2022-12-07T07:28:12;13.07;;;7.27;;
71288;SDS011;59068;52.502;9.860;2022-12-07T07:30:39;7.10;;;6.20;;
71288;SDS011;59068;52.502;9.860;2022-12-07T07:33:09;10.87;;;7.30;;
71288;SDS011;59068;52.502;9.860;2022-12-07T07:35:36;11.10;;;6.10;;
71288;SDS011;59068;52.502;9.860;2022-12-07T07:38:02;10.57;;;6.23;;
71288;SDS011;59068;52.502;9.860;2022-12-07T07:40:28;10.40;;;5.53;;
71288;SDS011;59068;52.502;9.860;2022-12-07T07:42:56;11.60;;;5.90;;
71288;SDS011;59068;52.502;9.860;2022-12-07T07:45:25;13.07;;;5.67;;
71288;SDS011;59068;52.502;9.860;2022-12-07T07:47:51;10.43;;;6.20;;
71288;SDS011;59068;52.502;9.860;2022-12-07T07:50:18;10.43;;;5.93;;
71288;SDS011;59068;52.502;9.860;2022-12-07T07:52:44;9.47;;;5.50;;
71288;SDS011;59068;52.502;9.860;2022-12-07T07:55:11;7.40;;;5.60;;
71288;SDS011;59068;52.502;9.860;2022-12-07T07:57:37;8.53;;;4.53;;
71288;SDS011;59068;52.502;9.860;2022-12-07T08:00:06;10.97;;;5.47;;
71288;SDS011;59068;52.502;9.860;2022-12-07T08:02:33;8.93;;;5.30;;
71288;SDS011;59068;52.502;9.860;2022-12-07T08:05:00;7.73;;;5.30;;
71288;SDS011;59068;52.502;9.860;2022-12-07T08:07:27;9.23;;;5.50;;
71288;SDS011;59068;52.502;9.860;2022-12-07T08:09:54;10.30;;;5.77;;
71288;SDS011;59068;52.502;9.860;2022-12-07T08:12:20;9.43;;;5.47;;
71288;SDS011;59068;52.502;9.860;2022-12-07T08:14:46;10.53;;;6.00;;
71288;SDS011;59068;52.502;9.860;2022-12-07T08:17:13;8.40;;;5.50;;
71288;SDS011;59068;52.502;9.860;2022-12-07T08:19:39;9.80;;;6.37;;
71288;SDS011;59068;52.502;9.860;2022-12-07T08:22:04;7.43;;;5.60;;
71288;SDS011;59068;52.502;9.860;2022-12-07T08:24:33;7.70;;;6.43;;
71288;SDS011;59068;52.502;9.860;2022-12-07T08:27:01;9.13;;;6.10;;
71288;SDS011;59068;52.502;9.860;2022-12-07T08:29:29;10.17;;;6.27;;
71288;SDS011;59068;52.502;9.860;2022-12-07T08:31:54;10.53;;;7.00;;
71288;SDS011;59068;52.502;9.860;2022-12-07T08:34:21;8.63;;;5.93;;
71288;SDS011;59068;52.502;9.860;2022-12-07T08:36:48;15.37;;;6.93;;
71288;SDS011;59068;52.502;9.860;2022-12-07T08:39:14;9.10;;;4.83;;
71288;SDS011;59068;52.502;9.860;2022-12-07T08:41:40;10.67;;;5.83;;
71288;SDS011;59068;52.502;9.860;2022-12-07T08:44:07;7.03;;;5.33;;
71288;SDS011;59068;52.502;9.860;2022-12-07T08:46:41;9.60;;;4.93;;
71288;SDS011;59068;52.502;9.860;2022-12-07T08:49:36;7.37;;;4.67;;
71288;SDS011;59068;52.502;9.860;2022-12-07T08:52:07;8.37;;;4.90;;
71288;SDS011;59068;52.502;9.860;2022-12-07T08:54:33;9.13;;;4.90;;
71288;SDS011;59068;52.502;9.860;2022-12-07T08:57:00;6.13;;;4.50;;
71288;SDS011;59068;52.502;9.860;2022-12-07T08:59:26;9.33;;;5.10;;
71288;SDS011;59068;52.502;9.860;2022-12-07T09:01:53;7.40;;;4.90;;
71288;SDS011;59068;52.502;9.860;2022-12-07T09:04:18;6.93;;;4.63;;
71288;SDS011;59068;52.502;9.860;2022-12-07T09:06:44;6.87;;;4.13;;
71288;SDS011;59068;52.502;9.860;2022-12-07T09:09:10;6.93;;;5.37;;
71288;SDS011;59068;52.502;9.860;2022-12-07T09:11:38;7.47;;;5.40;;
71288;SDS011;59068;52.502;9.860;2022-12-07T09:14:04;10.50;;;5.47;;
71288;SDS011;59068;52.502;9.860;2022-12-07T09:16:30;7.87;;;6.50;;
71288;SDS011;59068;52.502;9.860;2022-12-07T09:18:56;9.30;;;6.40;;
71288;SDS011;59068;52.502;9.860;2022-12-07T09:21:22;8.80;;;6.10;;
71288;SDS011;59068;52.502;9.860;2022-12-07T09:23:49;5.53;;;4.97;;
71288;SDS011;59068;52.502;9.860;2022-12-07T09:26:14;6.27;;;4.73;;
71288;SDS011;59068;52.502;9.860;2022-12-07T09:28:39;7.90;;;5.20;;
71288;SDS011;59068;52.502;9.860;2022-12-07T09:31:06;5.70;;;4.33;;
71288;SDS011;59068;52.502;9.860;2022-12-07T09:33:32;6.63;;;4.50;;
71288;SDS011;59068;52.502;9.860;2022-12-07T09:35:59;5.20;;;4.47;;
71288;SDS011;59068;52.502;9.860;2022-12-07T09:38:25;6.83;;;4.17;;
71288;SDS011;59068;52.502;9.860;2022-12-07T09:40:51;9.83;;;4.50;;
71288;SDS011;59068;52.502;9.860;2022-12-07T09:43:20;7.77;;;4.37;;
71288;SDS011;59068;52.502;9.860;2022-12-07T09:45:50;5.33;;;3.60;;
71288;SDS011;59068;52.502;9.860;2022-12-07T09:48:31;7.10;;;3.00;;
71288;SDS011;59068;52.502;9.860;2022-12-07T09:51:00;5.57;;;3.00;;
71288;SDS011;59068;52.502;9.860;2022-12-07T09:53:27;9.33;;;3.47;;
71288;SDS011;59068;52.502;9.860;2022-12-07T09:55:56;3.97;;;2.60;;
71288;SDS011;59068;52.502;9.860;2022-12-07T09:58:23;8.80;;;2.33;;
71288;SDS011;59068;52.502;9.860;2022-12-07T10:00:53;3.73;;;2.70;;
71288;SDS011;59068;52.502;9.860;2022-12-07T10:03:23;2.77;;;2.50;;
71288;SDS011;59068;52.502;9.860;2022-12-07T10:05:50;3.10;;;2.67;;
71288;SDS011;59068;52.502;9.860;2022-12-07T10:08:17;5.50;;;2.57;;
71288;SDS011;59068;52.502;9.860;2022-12-07T10:10:44;4.30;;;2.37;;
71288;SDS011;59068;52.502;9.860;2022-12-07T10:13:13;3.10;;;2.40;;
71288;SDS011;59068;52.502;9.860;2022-12-07T10:15:50;4.47;;;2.40;;
71288;SDS011;59068;52.502;9.860;2022-12-07T10:26:54;1.67;;;1.47;;
71288;SDS011;59068;52.502;9.860;2022-12-07T10:32:05;2.07;;;1.83;;
71288;SDS011;59068;52.502;9.860;2022-12-07T10:34:51;3.10;;;1.40;;
71288;SDS011;59068;52.502;9.860;2022-12-07T10:37:19;1.73;;;1.60;;
71288;SDS011;59068;52.502;9.860;2022-12-07T10:42:37;4.00;;;1.80;;
71288;SDS011;59068;52.502;9.860;2022-12-07T11:10:19;4.00;;;1.90;;
71288;SDS011;59068;52.502;9.860;2022-12-07T11:15:41;5.00;;;1.40;;
71288;SDS011;59068;52.502;9.860;2022-12-07T11:18:47;2.50;;;1.23;;
71288;SDS011;59068;52.502;9.860;2022-12-07T11:21:23;2.50;;;1.50;;
71288;SDS011;59068;52.502;9.860;2022-12-07T11:24:10;2.93;;;1.13;;
71288;SDS011;59068;52.502;9.860;2022-12-07T11:38:15;1.77;;;0.97;;
71288;SDS011;59068;52.502;9.860;2022-12-07T11:40:48;2.80;;;1.10;;
71288;SDS011;59068;52.502;9.860;2022-12-07T11:46:03;2.10;;;1.03;;
71288;SDS011;59068;52.502;9.860;2022-12-07T11:51:12;1.83;;;0.83;;
71288;SDS011;59068;52.502;9.860;2022-12-07T11:53:46;2.00;;;0.60;;
71288;SDS011;59068;52.502;9.860;2022-12-07T11:56:16;1.23;;;0.50;;
71288;SDS011;59068;52.502;9.860;2022-12-07T12:05:06;1.77;;;1.23;;
71288;SDS011;59068;52.502;9.860;2022-12-07T12:07:52;1.20;;;1.10;;
71288;SDS011;59068;52.502;9.860;2022-12-07T12:13:20;4.80;;;1.67;;
71288;SDS011;59068;52.502;9.860;2022-12-07T12:21:14;2.83;;;1.73;;
71288;SDS011;59068;52.502;9.860;2022-12-07T12:23:47;1.83;;;1.40;;
71288;SDS011;59068;52.502;9.860;2022-12-07T12:26:31;3.63;;;1.87;;
71288;SDS011;59068;52.502;9.860;2022-12-07T12:29:05;3.13;;;1.90;;
71288;SDS011;59068;52.502;9.860;2022-12-07T12:31:38;2.90;;;1.50;;
71288;SDS011;59068;52.502;9.860;2022-12-07T12:34:57;3.13;;;1.67;;
71288;SDS011;59068;52.502;9.860;2022-12-07T12:37:14;2.33;;;1.20;;
71288;SDS011;59068;52.502;9.860;2022-12-07T12:45:28;4.63;;;1.47;;
71288;SDS011;59068;52.502;9.860;2022-12-07T12:50:27;2.47;;;1.40;;
71288;SDS011;59068;52.502;9.860;2022-12-07T12:53:44;4.13;;;1.30;;
71288;SDS011;59068;52.502;9.860;2022-12-07T12:58:39;4.80;;;1.87;;
71288;SDS011;59068;52.502;9.860;2022-12-07T13:03:58;3.00;;;1.30;;
71288;SDS011;59068;52.502;9.860;2022-12-07T13:08:53;2.20;;;1.10;;
71288;SDS011;59068;52.502;9.860;2022-12-07T13:11:20;3.93;;;1.50;;
71288;SDS011;59068;52.502;9.860;2022-12-07T13:13:57;1.63;;;1.30;;
71288;SDS011;59068;52.502;9.860;2022-12-07T13:16:56;1.83;;;1.10;;
71288;SDS011;59068;52.502;9.860;2022-12-07T13:22:27;6.60;;;1.47;;
71288;SDS011;59068;52.502;9.860;2022-12-07T13:24:57;6.20;;;1.43;;
71288;SDS011;59068;52.502;9.860;2022-12-07T13:27:36;1.10;;;1.00;;
71288;SDS011;59068;52.502;9.860;2022-12-07T13:30:04;3.60;;;1.20;;
71288;SDS011;59068;52.502;9.860;2022-12-07T13:32:57;2.83;;;1.30;;
71288;SDS011;59068;52.502;9.860;2022-12-07T13:35:27;4.90;;;1.53;;
71288;SDS011;59068;52.502;9.860;2022-12-07T13:37:54;4.20;;;1.53;;
71288;SDS011;59068;52.502;9.860;2022-12-07T13:40:22;2.43;;;1.57;;
71288;SDS011;59068;52.502;9.860;2022-12-07T13:42:48;4.10;;;1.50;;
71288;SDS011;59068;52.502;9.860;2022-12-07T13:45:27;3.97;;;1.47;;
71288;SDS011;59068;52.502;9.860;2022-12-07T13:50:48;3.60;;;1.47;;
71288;SDS011;59068;52.502;9.860;2022-12-07T13:53:17;3.67;;;1.40;;
71288;SDS011;59068;52.502;9.860;2022-12-07T13:55:46;2.77;;;1.57;;
71288;SDS011;59068;52.502;9.860;2022-12-07T13:58:12;2.70;;;1.40;;
71288;SDS011;59068;52.502;9.860;2022-12-07T14:00:39;4.37;;;1.67;;
71288;SDS011;59068;52.502;9.860;2022-12-07T14:05:36;6.40;;;2.10;;
71288;SDS011;59068;52.502;9.860;2022-12-07T14:18:43;3.60;;;1.73;;
71288;SDS011;59068;52.502;9.860;2022-12-07T14:23:37;6.57;;;2.00;;
71288;SDS011;59068;52.502;9.860;2022-12-07T14:26:05;5.30;;;1.80;;
71288;SDS011;59068;52.502;9.860;2022-12-07T14:28:41;3.33;;;1.90;;
71288;SDS011;59068;52.502;9.860;2022-12-07T14:31:13;5.23;;;1.57;;
71288;SDS011;59068;52.502;9.860;2022-12-07T14:33:42;5.60;;;1.80;;
71288;SDS011;59068;52.502;9.860;2022-12-07T14:36:11;4.97;;;1.70;;
71288;SDS011;59068;52.502;9.860;2022-12-07T14:38:37;4.77;;;1.50;;
71288;SDS011;59068;52.502;9.860;2022-12-07T14:41:03;4.70;;;1.77;;
71288;SDS011;59068;52.502;9.860;2022-12-07T14:43:48;3.63;;;1.63;;
71288;SDS011;59068;52.502;9.860;2022-12-07T14:46:13;5.90;;;1.90;;
71288;SDS011;59068;52.502;9.860;2022-12-07T14:48:38;4.50;;;1.70;;
71288;SDS011;59068;52.502;9.860;2022-12-07T14:51:04;5.03;;;1.43;;
71288;SDS011;59068;52.502;9.860;2022-12-07T14:53:31;5.20;;;1.50;;
71288;SDS011;59068;52.502;9.860;2022-12-07T14:55:59;4.40;;;1.60;;
71288;SDS011;59068;52.502;9.860;2022-12-07T14:58:25;5.47;;;1.70;;
71288;SDS011;59068;52.502;9.860;2022-12-07T15:00:50;7.37;;;3.73;;
71288;SDS011;59068;52.502;9.860;2022-12-07T15:03:16;1.77;;;0.77;;
71288;SDS011;59068;52.502;9.860;2022-12-07T15:05:41;2.43;;;1.47;;
71288;SDS011;59068;52.502;9.860;2022-12-07T15:08:08;1.10;;;0.60;;
71288;SDS011;59068;52.502;9.860;2022-12-07T15:10:34;0.83;;;0.40;;
71288;SDS011;59068;52.502;9.860;2022-12-07T15:13:03;0.90;;;0.70;;
71288;SDS011;59068;52.502;9.860;2022-12-07T15:15:47;1.20;;;0.50;;
71288;SDS011;59068;52.502;9.860;2022-12-07T15:18:14;2.40;;;0.90;;
71288;SDS011;59068;52.502;9.860;2022-12-07T15:20:39;1.63;;;1.30;;
71288;SDS011;59068;52.502;9.860;2022-12-07T15:23:05;3.73;;;1.23;;
71288;SDS011;59068;52.502;9.860;2022-12-07T15:25:30;1.30;;;0.47;;
71288;SDS011;59068;52.502;9.860;2022-12-07T15:27:56;2.10;;;1.10;;
71288;SDS011;59068;52.502;9.860;2022-12-07T15:30:21;1.20;;;0.63;;
71288;SDS011;59068;52.502;9.860;2022-12-07T15:32:50;2.47;;;1.60;;
71288;SDS011;59068;52.502;9.860;2022-12-07T15:35:16;3.87;;;1.40;;
71288;SDS011;59068;52.502;9.860;2022-12-07T15:37:42;2.23;;;1.40;;
71288;SDS011;59068;52.502;9.860;2022-12-07T15:40:07;3.47;;;1.57;;
71288;SDS011;59068;52.502;9.860;2022-12-07T15:42:34;3.43;;;1.30;;
71288;SDS011;59068;52.502;9.860;2022-12-07T15:45:00;3.87;;;0.90;;
71288;SDS011;59068;52.502;9.860;2022-12-07T15:47:29;1.90;;;0.80;;
71288;SDS011;59068;52.502;9.860;2022-12-07T15:49:55;2.33;;;1.20;;
71288;SDS011;59068;52.502;9.860;2022-12-07T15:52:20;1.53;;;0.60;;
71288;SDS011;59068;52.502;9.860;2022-12-07T15:54:46;4.07;;;1.87;;
71288;SDS011;59068;52.502;9.860;2022-12-07T15:57:12;4.40;;;1.10;;
71288;SDS011;59068;52.502;9.860;2022-12-07T15:59:38;2.37;;;0.67;;
71288;SDS011;59068;52.502;9.860;2022-12-07T16:02:03;2.33;;;0.60;;
71288;SDS011;59068;52.502;9.860;2022-12-07T16:04:28;1.93;;;1.80;;
71288;SDS011;59068;52.502;9.860;2022-12-07T16:06:54;3.93;;;1.83;;
71288;SDS011;59068;52.502;9.860;2022-12-07T16:09:20;2.70;;;1.23;;
71288;SDS011;59068;52.502;9.860;2022-12-07T16:11:46;2.77;;;1.40;;
71288;SDS011;59068;52.502;9.860;2022-12-07T16:14:12;2.60;;;1.00;;
71288;SDS011;59068;52.502;9.860;2022-12-07T16:16:37;3.73;;;1.97;;
71288;SDS011;59068;52.502;9.860;2022-12-07T16:19:05;2.90;;;1.20;;
71288;SDS011;59068;52.502;9.860;2022-12-07T16:21:30;2.63;;;1.23;;
71288;SDS011;59068;52.502;9.860;2022-12-07T16:23:57;2.87;;;1.30;;
71288;SDS011;59068;52.502;9.860;2022-12-07T16:26:24;5.23;;;1.37;;
71288;SDS011;59068;52.502;9.860;2022-12-07T16:28:49;2.93;;;1.03;;
71288;SDS011;59068;52.502;9.860;2022-12-07T16:31:17;2.27;;;1.13;;
71288;SDS011;59068;52.502;9.860;2022-12-07T16:33:44;4.27;;;1.13;;
71288;SDS011;59068;52.502;9.860;2022-12-07T16:36:10;4.40;;;0.97;;
71288;SDS011;59068;52.502;9.860;2022-12-07T16:38:38;3.13;;;1.20;;
71288;SDS011;59068;52.502;9.860;2022-12-07T16:41:04;4.30;;;1.03;;
71288;SDS011;59068;52.502;9.860;2022-12-07T16:43:30;3.17;;;1.40;;
71288;SDS011;59068;52.502;9.860;2022-12-07T16:45:55;4.00;;;1.60;;
71288;SDS011;59068;52.502;9.860;2022-12-07T16:48:21;2.60;;;1.53;;
71288;SDS011;59068;52.502;9.860;2022-12-07T16:50:46;3.33;;;1.53;;
71288;SDS011;59068;52.502;9.860;2022-12-07T16:53:12;2.83;;;1.77;;
71288;SDS011;59068;52.502;9.860;2022-12-07T16:55:39;2.33;;;1.27;;
71288;SDS011;59068;52.502;9.860;2022-12-07T16:58:05;3.93;;;1.60;;
71288;SDS011;59068;52.502;9.860;2022-12-07T17:00:31;2.43;;;1.20;;
71288;SDS011;59068;52.502;9.860;2022-12-07T17:02:56;2.60;;;1.40;;